Main page
METAR-TAF:

METAR-TAF

Airports :

Guilin Liangjiang International Airport

Guilin, China

latitude: 25-20N, longitude: 110-18E, elevation: 166 m

Current weather observation

The report was made 1 hour and 3 minutes ago, at 05:00 UTC
Wind 10 kt from the East/Northeast, varying between North/Northeast and East
Temperature 18°C
Humidity 22%
Pressure 1030 hPa
Visibility 10 km or more
no clouds below 1500 m and no cumulonimbus

METAR: ZGKL 060500Z 07005MPS 030V100 CAVOK 18/M04 Q1030 NOSIG

Time: 14:03 (06:03 UTC)

Forecast

The report was made 2 hours and 52 minutes ago, at 03:11 UTC
Forecast valid from 06 at 06 UTC to 07 at 06 UTC
Wind 8 kt from the Northeast
Visibility 10 km or more
no clouds below 1500 m and no cumulonimbus

TAF: ZGKL 060311Z 0606/0706 05004MPS CAVOK TX21/0608Z TN03/0622Z

Weather observations and forecasts of more than 4000 airports (METAR and TAF reports).

The available stations are represented by yellow and red dots on the map.

Hover mouse over dot to see the name of the station.

Then click to see weather observations and forecasts.

To change the map : click on the green buttons with a black cross to zoom in, on the green button with a dash to zoom out, or on the green arrows for adjacent maps.


METAR-TAF: